Latest Coastal Weather Observations for North West 10 Beacon

IDQ60701

Issued at 4:52 pm EST Wednesday 8 February 2023 (issued every 10 minutes, with the page automatically refreshed every 10 minutes)

About coastal observations | Map of coastal stations | Coastal observations for QLD | Marine services | Other Formats
Station Details ID: 200896 Name: NORTH WEST 10 BEACON Lat: -27.00 Lon: 153.24 Height: 7.0 m
Data from the previous 72 hours. | See also: Recent months for locations in Queensland
Date/Time
EST
Wind Sea
Height
m
Swell Vis
km
Cloud Weather Temp
°C
Press
MSL
hPa
Rain since
9am
mm
Dir  Spd
kts
Gust
kts
Height
m
Period
s
Dir
08/04:30pm SE 13 15 - - - - - - - - - -
08/04:00pm SE 16 19 - - - - - - - - - -
08/03:30pm SE 16 18 - - - - - - - - - -
08/03:00pm SE 15 18 - - - - - - - - - -
08/02:30pm SE 15 18 - - - - - - - - - -
08/02:00pm SE 15 17 - - - - - - - - - -
08/01:30pm SE 15 18 - - - - - - - - - -
08/01:00pm SE 13 16 - - - - - - - - - -
08/12:30pm SE 12 15 - - - - - - - - - -
08/12:00pm SE 12 14 - - - - - - - - - -
08/11:30am SE 13 15 - - - - - - - - - -
08/11:00am SE 13 16 - - - - - - - - - -
08/10:30am SE 10 13 - - - - - - - - - -
08/10:00am ESE 12 15 - - - - - - - - - -
08/09:30am SE 13 16 - - - - - - - - - -
08/09:00am SE 12 14 - - - - - - - - - -
08/08:30am SE 14 16 - - - - - - - - - -
08/08:00am SE 13 16 - - - - - - - - - -
08/07:30am SE 12 16 - - - - - - - - - -
08/07:00am SE 13 16 - - - - - - - - - -
08/06:30am SE 14 17 - - - - - - - - - -
08/06:00am SE 13 15 - - - - - - - - - -
08/05:30am SE 14 16 - - - - - - - - - -
08/05:00am SE 13 16 - - - - - - - - - -
08/04:30am SE 12 14 - - - - - - - - - -
08/04:00am SE 14 16 - - - - - - - - - -
08/03:30am SE 13 15 - - - - - - - - - -
08/03:00am SE 13 15 - - - - - - - - - -
08/02:30am SE 13 15 - - - - - - - - - -
08/02:00am SE 12 14 - - - - - - - - - -
08/01:30am SE 13 15 - - - - - - - - - -
08/01:00am SE 12 14 - - - - - - - - - -
08/12:30am SE 11 13 - - - - - - - - - -
08/12:00am SE 11 12 - - - - - - - - - -
 
Date/Time
EST
Wind Sea
Height
m
Swell Vis
km
Cloud Weather Temp
°C
Press
MSL
hPa
Rain since
9am
mm
Dir  Spd
kts
Gust
kts
Height
m
Period
s
Dir
07/11:30pm SE 11 13 - - - - - - - - - -
07/11:00pm SE 10 12 - - - - - - - - - -
07/10:30pm SE 10 12 - - - - - - - - - -
07/10:00pm SE 11 13 - - - - - - - - - -
07/09:30pm ESE 10 13 - - - - - - - - - -
07/09:00pm ESE 9 12 - - - - - - - - - -
07/08:30pm ESE 10 12 - - - - - - - - - -
07/08:00pm ESE 11 13 - - - - - - - - - -
07/07:30pm ESE 13 16 - - - - - - - - - -
07/07:00pm ESE 12 15 - - - - - - - - - -
07/06:30pm ESE 14 17 - - - - - - - - - -
07/06:00pm ESE 13 16 - - - - - - - - - -
07/05:30pm ESE 13 15 - - - - - - - - - -
07/05:00pm ESE 14 16 - - - - - - - - - -
07/04:30pm ESE 13 16 - - - - - - - - - -
07/04:00pm ESE 12 15 - - - - - - - - - -
07/03:30pm ESE 12 14 - - - - - - - - - -
07/03:00pm SE 12 15 - - - - - - - - - -
07/02:30pm SE 13 16 - - - - - - - - - -
07/02:00pm SE 12 15 - - - - - - - - - -
07/01:30pm SE 12 15 - - - - - - - - - -
07/01:00pm SE 12 15 - - - - - - - - - -
07/12:30pm SE 11 13 - - - - - - - - - -
07/12:00pm SE 13 15 - - - - - - - - - -
07/11:30am SE 11 13 - - - - - - - - - -
07/11:00am SE 10 12 - - - - - - - - - -
07/10:30am SE 10 13 - - - - - - - - - -
07/10:00am SE 9 12 - - - - - - - - - -
07/09:30am SE 9 12 - - - - - - - - - -
07/09:00am ESE 8 11 - - - - - - - - - -
07/08:30am ESE 9 11 - - - - - - - - - -
07/08:00am SE 11 13 - - - - - - - - - -
07/07:30am ESE 10 12 - - - - - - - - - -
07/07:00am ESE 10 12 - - - - - - - - - -
07/06:30am ESE 10 12 - - - - - - - - - -
07/06:00am ESE 11 13 - - - - - - - - - -
07/05:30am ESE 11 13 - - - - - - - - - -
07/05:00am ESE 10 12 - - - - - - - - - -
07/04:30am ESE 10 11 - - - - - - - - - -
07/04:00am ESE 9 11 - - - - - - - - - -
07/03:30am SE 10 11 - - - - - - - - - -
07/03:00am ESE 9 11 - - - - - - - - - -
07/02:30am SE 10 11 - - - - - - - - - -
07/02:00am ESE 9 11 - - - - - - - - - -
07/01:30am ESE 10 13 - - - - - - - - - -
07/01:00am ESE 10 12 - - - - - - - - - -
07/12:30am ESE 11 13 - - - - - - - - - -
07/12:00am ESE 10 13 - - - - - - - - - -
 
Date/Time
EST
Wind Sea
Height
m
Swell Vis
km
Cloud Weather Temp
°C
Press
MSL
hPa
Rain since
9am
mm
Dir  Spd
kts
Gust
kts
Height
m
Period
s
Dir
06/11:30pm ESE 9 11 - - - - - - - - - -
06/11:00pm ESE 10 12 - - - - - - - - - -
06/10:30pm ESE 9 10 - - - - - - - - - -
06/10:00pm ESE 9 10 - - - - - - - - - -
06/09:30pm ESE 8 10 - - - - - - - - - -
06/09:00pm ESE 8 10 - - - - - - - - - -
06/08:30pm ESE 8 10 - - - - - - - - - -
06/08:00pm ESE 9 11 - - - - - - - - - -
06/07:30pm ESE 9 12 - - - - - - - - - -
06/07:00pm ESE 10 13 - - - - - - - - - -
06/06:30pm ESE 10 13 - - - - - - - - - -
06/06:00pm ESE 12 15 - - - - - - - - - -
06/05:30pm ESE 13 16 - - - - - - - - - -
06/05:00pm ESE 13 16 - - - - - - - - - -
06/04:30pm ESE 13 15 - - - - - - - - - -
06/04:00pm ESE 12 14 - - - - - - - - - -
06/03:30pm ESE 12 16 - - - - - - - - - -
06/03:00pm ESE 13 15 - - - - - - - - - -
06/02:30pm SE 13 15 - - - - - - - - - -
06/02:00pm ESE 13 15 - - - - - - - - - -
06/01:30pm SE 14 16 - - - - - - - - - -
06/01:00pm SE 14 17 - - - - - - - - - -
06/12:30pm SE 14 17 - - - - - - - - - -
06/12:00pm SE 15 18 - - - - - - - - - -
06/11:30am SE 13 15 - - - - - - - - - -
06/11:00am SE 14 17 - - - - - - - - - -
06/10:30am SE 14 16 - - - - - - - - - -
06/10:00am SE 13 17 - - - - - - - - - -
06/09:30am SE 13 16 - - - - - - - - - -
06/09:00am SE 13 17 - - - - - - - - - -
06/08:30am SE 13 16 - - - - - - - - - -
06/08:00am SE 13 16 - - - - - - - - - -
06/07:30am SE 12 14 - - - - - - - - - -
06/07:00am SE 12 15 - - - - - - - - - -
06/06:30am SE 13 15 - - - - - - - - - -
06/06:00am SE 12 15 - - - - - - - - - -
06/05:30am SE 12 14 - - - - - - - - - -
06/05:00am SE 12 15 - - - - - - - - - -
06/04:30am SE 13 15 - - - - - - - - - -
06/04:00am SE 12 13 - - - - - - - - - -
06/03:30am SE 12 14 - - - - - - - - - -
06/03:00am SE 11 13 - - - - - - - - - -
06/02:30am SE 11 13 - - - - - - - - - -
06/02:00am SE 12 13 - - - - - - - - - -
06/01:30am SE 11 12 - - - - - - - - - -
06/01:00am SE 11 13 - - - - - - - - - -
06/12:30am SE 11 13 - - - - - - - - - -
06/12:00am SE 10 12 - - - - - - - - - -
 
Date/Time
EST
Wind Sea
Height
m
Swell Vis
km
Cloud Weather Temp
°C
Press
MSL
hPa
Rain since
9am
mm
Dir  Spd
kts
Gust
kts
Height
m
Period
s
Dir
05/11:30pm ESE 11 14 - - - - - - - - - -
05/11:00pm SE 12 14 - - - - - - - - - -
05/10:30pm ESE 11 14 - - - - - - - - - -
05/10:00pm ESE 12 13 - - - - - - - - - -
05/09:30pm ESE 11 13 - - - - - - - - - -
05/09:00pm ESE 12 15 - - - - - - - - - -
05/08:30pm ESE 12 14 - - - - - - - - - -
05/08:00pm ESE 14 16 - - - - - - - - - -
05/07:30pm ESE 13 17 - - - - - - - - - -
05/07:00pm ESE 14 17 - - - - - - - - - -
05/06:30pm SE 15 18 - - - - - - - - - -
05/06:00pm SE 14 16 - - - - - - - - - -
05/05:30pm SE 14 16 - - - - - - - - - -
05/05:00pm ESE 13 15 - - - - - - - - - -

Other formats

Comma delimited format used in spreadsheet applications
http://www.bom.gov.au/fwo/IDQ60701/IDQ60701.99496.axf

JavaScript Object Notation format (JSON) in row-major order
http://www.bom.gov.au/fwo/IDQ60701/IDQ60701.99496.json

Data quality

Most of these data are generated automatically and are frequently updated. Quality checks on data are not normally performed. It is possible for incorrect values to appear. Refer to information at About Latest Weather Observations and please check the disclaimer before using these data.